createdAt,value
2023-04-15T00:00:00.516Z,59.12
2023-04-15T00:01:00.494Z,58.92
2023-04-15T00:02:00.550Z,58.61
2023-04-15T00:03:00.667Z,58.72
2023-04-15T00:04:00.517Z,59.02
2023-04-15T00:05:00.440Z,59.12
2023-04-15T00:06:00.430Z,59.33
2023-04-15T00:07:00.409Z,59.12
2023-04-15T00:08:06.419Z,59.77
2023-04-15T00:09:00.516Z,59.25
2023-04-15T00:10:00.381Z,59.12
2023-04-15T00:11:00.362Z,59.02
2023-04-15T00:12:00.348Z,59.87
2023-04-15T00:13:00.331Z,59.87
2023-04-15T00:14:00.348Z,60.07
2023-04-15T00:15:00.305Z,60.49
2023-04-15T00:16:00.301Z,60.31
2023-04-15T00:17:00.311Z,60.28
2023-04-15T00:18:00.295Z,60.10
2023-04-15T00:19:00.602Z,60.61
2023-04-15T00:20:00.238Z,60.41
2023-04-15T00:21:00.271Z,60.72
2023-04-15T00:22:00.225Z,60.82
2023-04-15T00:23:00.203Z,60.82
2023-04-15T00:24:00.237Z,60.61
2023-04-15T00:25:00.186Z,60.82
2023-04-15T00:26:00.165Z,61.13
2023-04-15T00:27:00.173Z,61.26
2023-04-15T00:28:00.147Z,61.36
2023-04-15T00:29:00.339Z,61.16
2023-04-15T00:30:06.618Z,61.67
2023-04-15T00:31:00.189Z,62.01
2023-04-15T00:32:00.083Z,62.21
2023-04-15T00:33:00.180Z,62.01
2023-04-15T00:34:00.108Z,62.41
2023-04-15T00:35:00.054Z,62.41
2023-04-15T00:36:00.060Z,62.01
2023-04-15T00:37:00.030Z,62.24
2023-04-15T00:38:00.035Z,62.52
2023-04-15T00:39:00.284Z,62.34
2023-04-15T00:39:59.998Z,62.75
2023-04-15T00:40:59.988Z,63.06
2023-04-15T00:42:00.020Z,63.06
2023-04-15T00:43:00.003Z,63.06
2023-04-15T00:43:59.955Z,63.20
2023-04-15T00:44:59.916Z,63.20
2023-04-15T00:45:59.961Z,63.40
2023-04-15T00:46:59.942Z,63.20
2023-04-15T00:47:59.979Z,63.20
2023-04-15T00:49:00.070Z,63.74
2023-04-15T00:49:59.872Z,63.84
2023-04-15T00:50:59.837Z,64.04
2023-04-15T00:51:59.845Z,64.36
2023-04-15T00:52:59.859Z,64.46
2023-04-15T00:53:59.834Z,64.90
2023-04-15T00:54:59.792Z,65.00
2023-04-15T00:55:59.795Z,65.11
2023-04-15T00:56:59.759Z,65.20
2023-04-15T00:57:59.752Z,65.31
2023-04-15T00:58:59.995Z,65.52
2023-04-15T00:59:59.726Z,65.52
2023-04-15T01:00:59.715Z,65.92
2023-04-15T01:01:59.792Z,65.62
2023-04-15T01:02:59.910Z,65.92
2023-04-15T01:03:59.808Z,65.92
2023-04-15T01:04:59.677Z,65.65
2023-04-15T01:06:00.897Z,65.95
2023-04-15T01:06:59.654Z,66.16
2023-04-15T01:07:59.653Z,65.95
2023-04-15T01:08:59.910Z,65.86
2023-04-15T01:09:59.621Z,65.20
2023-04-15T01:10:59.609Z,65.11
2023-04-15T01:11:59.568Z,64.90
2023-04-15T01:12:59.567Z,64.93
2023-04-15T01:13:59.614Z,65.13
2023-04-15T01:14:59.577Z,65.75
2023-04-15T01:15:59.542Z,66.27
2023-04-15T01:16:59.522Z,66.71
2023-04-15T01:17:59.608Z,66.81
2023-04-15T01:18:59.675Z,66.81
2023-04-15T01:19:59.466Z,67.25
2023-04-15T01:20:59.454Z,67.36
2023-04-15T01:21:59.470Z,67.90
2023-04-15T01:22:59.459Z,67.90
2023-04-15T01:23:59.439Z,68.11
2023-04-15T01:24:59.404Z,67.80
2023-04-15T01:25:59.396Z,68.21
2023-04-15T01:26:59.381Z,68.21
2023-04-15T01:27:59.358Z,68.32
2023-04-15T01:28:59.583Z,68.21
2023-04-15T01:29:59.333Z,68.52
2023-04-15T01:30:59.337Z,68.62
2023-04-15T01:31:59.403Z,69.04
2023-04-15T01:32:59.354Z,68.73
2023-04-15T01:33:59.321Z,68.83
2023-04-15T01:34:59.328Z,68.83
2023-04-15T01:35:59.268Z,68.52
2023-04-15T01:36:59.266Z,68.42
2023-04-15T01:37:59.236Z,68.42
2023-04-15T01:38:59.490Z,68.42
2023-04-15T01:39:59.262Z,68.32
2023-04-15T01:40:59.232Z,68.32
2023-04-15T01:41:59.178Z,68.55
2023-04-15T01:42:59.184Z,68.66
2023-04-15T01:43:59.222Z,68.96
2023-04-15T01:44:59.172Z,69.48
2023-04-15T01:45:59.123Z,69.27
2023-04-15T01:46:59.173Z,69.27
2023-04-15T01:47:59.199Z,69.69
2023-04-15T01:48:59.374Z,69.59
2023-04-15T01:49:59.079Z,69.59
2023-04-15T01:50:59.137Z,69.59
2023-04-15T01:51:59.054Z,69.69
2023-04-15T01:52:59.044Z,69.89
2023-04-15T01:53:59.093Z,69.27
2023-04-15T01:54:59.013Z,69.48
2023-04-15T01:55:59.009Z,69.69
2023-04-15T01:56:59.043Z,69.69
2023-04-15T01:57:58.984Z,69.38
2023-04-15T01:58:59.145Z,69.24
2023-04-15T01:59:58.982Z,69.24
2023-04-15T02:00:58.992Z,69.38
2023-04-15T02:01:59.004Z,69.45
2023-04-15T02:02:59.045Z,69.24
2023-04-15T02:03:58.972Z,69.27
2023-04-15T02:04:58.900Z,69.48
2023-04-15T02:05:58.897Z,69.27
2023-04-15T02:06:58.863Z,69.48
2023-04-15T02:07:58.889Z,69.48
2023-04-15T02:08:59.095Z,69.79
2023-04-15T02:09:58.833Z,69.69
2023-04-15T02:10:58.805Z,70.03
2023-04-15T02:11:58.849Z,70.23
2023-04-15T02:12:58.788Z,70.03
2023-04-15T02:13:58.766Z,70.13
2023-04-15T02:14:58.797Z,70.44
2023-04-15T02:15:58.771Z,70.23
2023-04-15T02:16:58.804Z,70.13
2023-04-15T02:17:58.763Z,70.13
2023-04-15T02:18:58.853Z,69.93
2023-04-15T02:19:58.690Z,69.93
2023-04-15T02:20:59.056Z,70.03
2023-04-15T02:21:58.664Z,70.23
2023-04-15T02:22:58.661Z,70.34
2023-04-15T02:23:58.684Z,70.23
2023-04-15T02:24:58.630Z,70.03
2023-04-15T02:25:58.636Z,70.37
2023-04-15T02:26:58.639Z,70.03
2023-04-15T02:27:58.595Z,69.51
2023-04-15T02:28:58.770Z,69.31
2023-04-15T02:29:58.587Z,69.72
2023-04-15T02:30:58.595Z,69.62
2023-04-15T02:31:58.563Z,70.34
2023-04-15T02:32:58.649Z,70.34
2023-04-15T02:33:58.510Z,69.93
2023-04-15T02:34:58.498Z,70.65
2023-04-15T02:35:58.548Z,71.37
2023-04-15T02:36:58.472Z,70.86
2023-04-15T02:37:58.461Z,70.44
2023-04-15T02:38:58.531Z,70.41
2023-04-15T02:39:58.428Z,70.51
2023-04-15T02:40:58.426Z,70.75
2023-04-15T02:41:58.448Z,71.06
2023-04-15T02:42:58.401Z,71.03
2023-04-15T02:43:58.429Z,71.26
2023-04-15T02:44:58.395Z,71.37
2023-04-15T02:45:58.403Z,71.58
2023-04-15T02:46:58.361Z,71.47
2023-04-15T02:47:58.388Z,71.75
2023-04-15T02:48:58.339Z,71.68
2023-04-15T02:49:58.307Z,71.78
2023-04-15T02:50:58.340Z,72.40
2023-04-15T02:51:58.296Z,72.61
2023-04-15T02:52:58.272Z,72.81
2023-04-15T02:53:58.286Z,72.81
2023-04-15T02:54:58.240Z,72.81
2023-04-15T02:55:58.246Z,73.12
2023-04-15T02:56:58.221Z,73.22
2023-04-15T02:57:58.194Z,73.12
2023-04-15T02:58:58.196Z,72.71
2023-04-15T02:59:58.205Z,72.61
2023-04-15T03:00:58.276Z,72.61
2023-04-15T03:01:58.185Z,72.61
2023-04-15T03:02:58.289Z,73.02
2023-04-15T03:03:58.205Z,72.92
2023-04-15T03:04:58.171Z,72.95
2023-04-15T03:05:58.145Z,73.68
2023-04-15T03:06:58.121Z,73.47
2023-04-15T03:07:58.053Z,73.16
2023-04-15T03:08:58.099Z,72.95
2023-04-15T03:09:58.071Z,72.95
2023-04-15T03:10:58.086Z,72.85
2023-04-15T03:11:58.059Z,73.47
2023-04-15T03:12:58.049Z,73.36
2023-04-15T03:13:57.988Z,73.68
2023-04-15T03:14:58.037Z,73.91
2023-04-15T03:15:58.041Z,73.50
2023-04-15T03:16:57.952Z,73.68
2023-04-15T03:17:57.962Z,73.16
2023-04-15T03:18:57.974Z,73.05
2023-04-15T03:19:57.959Z,73.05
2023-04-15T03:20:57.919Z,72.74
2023-04-15T03:21:57.921Z,73.05
2023-04-15T03:22:57.899Z,72.95
2023-04-15T03:23:57.876Z,72.85
2023-04-15T03:24:57.875Z,72.74
2023-04-15T03:25:57.869Z,72.95
2023-04-15T03:26:57.819Z,72.99
2023-04-15T03:27:57.818Z,73.39
2023-04-15T03:28:57.904Z,73.39
2023-04-15T03:29:57.797Z,73.50
2023-04-15T03:30:57.829Z,73.71
2023-04-15T03:31:57.761Z,73.81
2023-04-15T03:32:57.783Z,73.95
2023-04-15T03:33:57.744Z,74.36
2023-04-15T03:34:57.744Z,74.26
2023-04-15T03:35:57.710Z,74.26
2023-04-15T03:36:57.713Z,74.46
2023-04-15T03:37:57.669Z,74.57
2023-04-15T03:38:57.665Z,74.67
2023-04-15T03:39:57.688Z,74.36
2023-04-15T03:40:57.649Z,74.40
2023-04-15T03:41:57.621Z,74.81
2023-04-15T03:42:57.654Z,75.22
2023-04-15T03:43:57.590Z,75.12
2023-04-15T03:44:57.600Z,75.01
2023-04-15T03:45:58.381Z,75.88
2023-04-15T03:46:57.573Z,75.46
2023-04-15T03:48:07.079Z,75.32
2023-04-15T03:48:57.565Z,75.32
2023-04-15T03:49:57.532Z,75.15
2023-04-15T03:50:57.540Z,75.67
2023-04-15T03:51:57.550Z,75.53
2023-04-15T03:52:57.485Z,75.98
2023-04-15T03:53:57.468Z,76.29
2023-04-15T03:54:57.537Z,76.39
2023-04-15T03:55:57.475Z,76.26
2023-04-15T03:56:57.432Z,76.36
2023-04-15T03:57:57.450Z,76.46
2023-04-15T03:58:57.409Z,76.36
2023-04-15T03:59:57.393Z,76.77
2023-04-15T04:00:57.416Z,76.87
2023-04-15T04:01:57.480Z,76.05
2023-04-15T04:02:57.536Z,75.74
2023-04-15T04:03:57.502Z,75.19
2023-04-15T04:04:57.372Z,75.29
2023-04-15T04:05:57.416Z,74.77
2023-04-15T04:06:57.309Z,74.33
2023-04-15T04:07:57.311Z,74.02
2023-04-15T04:08:57.274Z,74.33
2023-04-15T04:09:57.262Z,74.02
2023-04-15T04:10:57.261Z,73.81
2023-04-15T04:11:57.180Z,74.22
2023-04-15T04:12:57.174Z,74.02
2023-04-15T04:13:57.173Z,73.91
2023-04-15T04:14:57.155Z,73.57
2023-04-15T04:15:57.170Z,73.26
2023-04-15T04:16:57.218Z,73.60
2023-04-15T04:17:57.217Z,73.77
2023-04-15T04:18:57.089Z,73.71
2023-04-15T04:19:57.090Z,73.60
2023-04-15T04:20:57.109Z,73.57
2023-04-15T04:21:57.067Z,73.36
2023-04-15T04:22:57.054Z,72.95
2023-04-15T04:23:57.065Z,73.16
2023-04-15T04:24:57.021Z,73.05
2023-04-15T04:25:57.025Z,72.95
2023-04-15T04:26:57.024Z,72.85
2023-04-15T04:27:56.972Z,72.64
2023-04-15T04:28:56.966Z,72.74
2023-04-15T04:29:56.979Z,72.54
2023-04-15T04:30:56.961Z,72.64
2023-04-15T04:31:56.929Z,72.30
2023-04-15T04:32:56.967Z,71.99
2023-04-15T04:33:56.939Z,72.09
2023-04-15T04:34:56.926Z,71.78
2023-04-15T04:35:56.921Z,72.09
2023-04-15T04:36:56.878Z,71.89
2023-04-15T04:37:56.858Z,71.78
2023-04-15T04:38:56.826Z,71.78
2023-04-15T04:39:56.816Z,71.78
2023-04-15T04:40:56.849Z,71.99
2023-04-15T04:41:56.789Z,71.99
2023-04-15T04:42:56.777Z,72.19
2023-04-15T04:43:56.811Z,72.30
2023-04-15T04:44:56.764Z,71.78
2023-04-15T04:45:56.783Z,71.89
2023-04-15T04:46:56.777Z,71.85
2023-04-15T04:47:56.732Z,71.34
2023-04-15T04:48:56.716Z,71.75
2023-04-15T04:49:56.712Z,71.64
2023-04-15T04:50:56.688Z,71.30
2023-04-15T04:51:56.662Z,71.51
2023-04-15T04:52:56.692Z,71.72
2023-04-15T04:53:56.638Z,71.64
2023-04-15T04:54:56.628Z,71.95
2023-04-15T04:55:56.643Z,71.85
2023-04-15T04:56:56.600Z,71.85
2023-04-15T04:57:56.587Z,71.41
2023-04-15T04:58:56.648Z,70.58
2023-04-15T04:59:56.563Z,70.48
2023-04-15T05:00:56.589Z,70.68
2023-04-15T05:01:56.613Z,70.68
2023-04-15T05:02:56.643Z,70.65
2023-04-15T05:03:56.661Z,70.34
2023-04-15T05:04:56.516Z,69.93
2023-04-15T05:05:56.520Z,69.73
2023-04-15T05:06:56.474Z,69.11
2023-04-15T05:07:56.448Z,68.77
2023-04-15T05:08:56.485Z,67.94
2023-04-15T05:09:56.439Z,66.81
2023-04-15T05:10:56.443Z,66.27
2023-04-15T05:11:56.414Z,65.86
2023-04-15T05:12:56.380Z,65.52
2023-04-15T05:13:56.392Z,65.52
2023-04-15T05:14:56.404Z,65.20
2023-04-15T05:15:56.417Z,65.17
2023-04-15T05:16:56.364Z,64.76
2023-04-15T05:17:56.360Z,65.17
2023-04-15T05:18:56.310Z,65.08
2023-04-15T05:19:56.315Z,65.17
2023-04-15T05:20:56.319Z,64.97
2023-04-15T05:21:56.276Z,64.76
2023-04-15T05:22:56.257Z,64.94
2023-04-15T05:23:56.270Z,64.94
2023-04-15T05:24:56.241Z,64.84
2023-04-15T05:25:56.238Z,64.84
2023-04-15T05:26:56.265Z,64.81
2023-04-15T05:27:56.195Z,65.12
2023-04-15T05:28:56.178Z,65.25
2023-04-15T05:29:56.185Z,65.42
2023-04-15T05:30:56.194Z,65.32
2023-04-15T05:31:56.177Z,65.12
2023-04-15T05:32:56.202Z,65.09
2023-04-15T05:33:56.128Z,65.09
2023-04-15T05:34:56.110Z,64.95
2023-04-15T05:35:56.129Z,64.75
2023-04-15T05:36:56.113Z,64.54
2023-04-15T05:37:56.091Z,65.06
2023-04-15T05:38:56.068Z,64.85
2023-04-15T05:39:56.060Z,64.75
2023-04-15T05:40:56.054Z,64.64
2023-04-15T05:41:56.072Z,64.98
2023-04-15T05:42:55.994Z,65.73
2023-04-15T05:43:56.000Z,65.83
2023-04-15T05:44:55.989Z,66.04
2023-04-15T05:45:56.006Z,66.28
2023-04-15T05:46:55.962Z,66.58
2023-04-15T05:47:56.015Z,66.55
2023-04-15T05:48:56.606Z,66.35
2023-04-15T05:49:55.918Z,66.76
2023-04-15T05:50:55.928Z,66.66
2023-04-15T05:51:55.908Z,66.35
2023-04-15T05:52:55.889Z,66.76
2023-04-15T05:53:55.918Z,66.04
2023-04-15T05:54:55.835Z,65.94
2023-04-15T05:55:55.832Z,65.73
2023-04-15T05:56:55.851Z,65.73
2023-04-15T05:57:55.823Z,65.63
2023-04-15T05:58:55.798Z,65.42
2023-04-15T05:59:55.827Z,65.39
2023-04-15T06:00:55.804Z,65.19
2023-04-15T06:01:55.813Z,64.98
2023-04-15T06:02:55.836Z,65.19
2023-04-15T06:03:55.970Z,65.50
2023-04-15T06:04:55.752Z,65.39
2023-04-15T06:05:55.773Z,65.91
2023-04-15T06:06:55.710Z,65.19
2023-04-15T06:07:55.712Z,65.70
2023-04-15T06:08:55.653Z,65.70
2023-04-15T06:09:55.670Z,66.01
2023-04-15T06:10:55.657Z,65.91
2023-04-15T06:11:55.622Z,65.73
2023-04-15T06:12:55.624Z,65.94
2023-04-15T06:13:55.619Z,66.04
2023-04-15T06:14:55.593Z,66.04
2023-04-15T06:15:55.672Z,65.83
2023-04-15T06:16:55.575Z,66.42
2023-04-15T06:17:55.657Z,66.01
2023-04-15T06:18:55.553Z,65.77
2023-04-15T06:19:55.525Z,65.67
2023-04-15T06:20:55.539Z,65.88
2023-04-15T06:21:55.508Z,65.26
2023-04-15T06:22:55.495Z,65.09
2023-04-15T06:23:55.484Z,65.67
2023-04-15T06:24:55.470Z,65.36
2023-04-15T06:25:55.451Z,65.06
2023-04-15T06:26:55.426Z,64.75
2023-04-15T06:27:55.433Z,64.72
2023-04-15T06:28:55.407Z,64.82
2023-04-15T06:29:55.399Z,64.31
2023-04-15T06:30:55.394Z,63.97
2023-04-15T06:31:55.442Z,63.97
2023-04-15T06:32:55.361Z,63.94
2023-04-15T06:33:55.348Z,63.84
2023-04-15T06:34:55.329Z,63.94
2023-04-15T06:35:55.351Z,63.81
2023-04-15T06:36:55.306Z,63.40
2023-04-15T06:37:55.282Z,62.88
2023-04-15T06:38:55.285Z,64.01
2023-04-15T06:39:55.277Z,63.50
2023-04-15T06:40:55.252Z,63.29
2023-04-15T06:41:55.288Z,63.70
2023-04-15T06:42:55.217Z,63.57
2023-04-15T06:43:55.210Z,63.20
2023-04-15T06:44:55.197Z,63.17
2023-04-15T06:45:55.222Z,63.47
2023-04-15T06:46:55.169Z,63.26
2023-04-15T06:47:55.232Z,63.09
2023-04-15T06:48:55.166Z,63.29
2023-04-15T06:49:55.144Z,63.12
2023-04-15T06:50:55.141Z,63.43
2023-04-15T06:51:55.124Z,63.22
2023-04-15T06:52:55.085Z,63.12
2023-04-15T06:53:55.100Z,62.92
2023-04-15T06:54:55.078Z,62.58
2023-04-15T06:55:55.066Z,62.78
2023-04-15T06:56:55.040Z,63.09
2023-04-15T06:57:55.039Z,63.53
2023-04-15T06:58:55.008Z,63.53
2023-04-15T06:59:54.999Z,63.94
2023-04-15T07:00:54.993Z,63.73
2023-04-15T07:01:55.035Z,64.25
2023-04-15T07:02:54.991Z,63.64
2023-04-15T07:03:54.960Z,63.50
2023-04-15T07:04:54.962Z,63.06
2023-04-15T07:05:54.943Z,63.06
2023-04-15T07:06:54.904Z,62.62
2023-04-15T07:07:54.903Z,62.32
2023-04-15T07:08:54.885Z,61.77
2023-04-15T07:09:54.882Z,61.47
2023-04-15T07:10:54.879Z,61.57
2023-04-15T07:11:54.916Z,62.01
2023-04-15T07:12:56.599Z,61.88
2023-04-15T07:13:56.896Z,62.21
2023-04-15T07:14:54.797Z,61.98
2023-04-15T07:15:54.946Z,61.98
2023-04-15T07:16:54.879Z,63.13
2023-04-15T07:17:54.847Z,62.39
2023-04-15T07:18:54.766Z,62.18
2023-04-15T07:19:54.732Z,62.08
2023-04-15T07:20:54.724Z,61.67
2023-04-15T07:21:55.095Z,61.16
2023-04-15T07:22:54.971Z,61.24
2023-04-15T07:23:54.791Z,61.10
2023-04-15T07:24:54.681Z,60.90
2023-04-15T07:25:54.687Z,61.69
2023-04-15T07:26:54.659Z,60.77
2023-04-15T07:27:54.640Z,60.05
2023-04-15T07:28:54.615Z,59.92
2023-04-15T07:30:56.852Z,60.21
2023-04-15T07:31:57.826Z,60.51
2023-04-15T07:32:57.883Z,60.51
2023-04-15T07:33:57.779Z,59.97
2023-04-15T07:34:57.762Z,59.56
2023-04-15T07:35:57.748Z,58.41
2023-04-15T07:36:57.773Z,58.08
2023-04-15T07:37:57.736Z,57.98
2023-04-15T07:38:57.724Z,57.95
2023-04-15T07:39:57.707Z,58.76
2023-04-15T07:40:57.687Z,58.33
2023-04-15T07:41:57.693Z,59.75
2023-04-15T07:42:57.656Z,58.53
2023-04-15T07:43:57.651Z,57.82
2023-04-15T07:44:57.638Z,56.88
2023-04-15T07:45:57.709Z,56.98
2023-04-15T07:46:57.626Z,55.96
2023-04-15T07:47:57.660Z,56.27
2023-04-15T07:48:57.576Z,55.73
2023-04-15T07:49:57.573Z,55.94
2023-04-15T07:50:57.571Z,55.40
2023-04-15T07:51:57.551Z,55.51
2023-04-15T07:52:57.540Z,55.18
2023-04-15T07:53:57.522Z,55.63
2023-04-15T07:54:57.500Z,54.11
2023-04-15T07:55:57.519Z,53.78
2023-04-15T07:56:57.486Z,54.44
2023-04-15T07:57:57.474Z,53.91
2023-04-15T07:58:57.467Z,54.11
2023-04-15T07:59:57.440Z,53.67
2023-04-15T08:00:57.435Z,52.94
2023-04-15T08:01:57.469Z,52.94
2023-04-15T08:02:57.597Z,52.84
2023-04-15T08:03:57.477Z,52.64
2023-04-15T08:04:57.415Z,52.33
2023-04-15T08:05:57.419Z,52.20
2023-04-15T08:06:57.349Z,50.86
2023-04-15T08:07:57.340Z,52.28
2023-04-15T08:08:57.366Z,51.67
2023-04-15T08:09:57.309Z,50.34
2023-04-15T08:10:57.322Z,50.96
2023-04-15T08:11:57.277Z,51.14
2023-04-15T08:12:57.267Z,50.21
2023-04-15T08:13:57.246Z,49.98
2023-04-15T08:14:57.248Z,49.58
2023-04-15T08:15:57.275Z,49.98
2023-04-15T08:16:57.233Z,50.57
2023-04-15T08:17:57.223Z,49.43
2023-04-15T08:18:57.269Z,47.94
2023-04-15T08:19:57.255Z,48.54
2023-04-15T08:20:57.191Z,48.03
2023-04-15T08:21:57.189Z,49.58
2023-04-15T08:22:57.127Z,48.26
2023-04-15T08:23:57.114Z,48.44
2023-04-15T08:24:57.105Z,47.51
2023-04-15T08:25:57.084Z,47.11
2023-04-15T08:26:57.123Z,46.50
2023-04-15T08:27:57.078Z,48.44
2023-04-15T08:28:57.066Z,47.20
2023-04-15T08:29:57.039Z,47.61
2023-04-15T08:30:57.018Z,47.13
2023-04-15T08:31:57.068Z,47.71
2023-04-15T08:32:57.054Z,47.20
2023-04-15T08:33:56.986Z,46.80
2023-04-15T08:34:56.969Z,45.69
2023-04-15T08:35:56.953Z,44.96
2023-04-15T08:36:56.977Z,46.28
2023-04-15T08:37:56.941Z,45.77
2023-04-15T08:38:56.926Z,45.65
2023-04-15T08:39:56.902Z,46.45
2023-04-15T08:40:57.058Z,43.60
2023-04-15T08:41:56.920Z,45.02
2023-04-15T08:42:56.858Z,45.34
2023-04-15T08:43:56.846Z,46.05
2023-04-15T08:44:56.834Z,45.53
2023-04-15T08:45:56.829Z,44.23
2023-04-15T08:46:56.854Z,43.95
2023-04-15T08:47:56.848Z,45.45
2023-04-15T08:48:56.791Z,45.73
2023-04-15T08:49:56.819Z,46.73
2023-04-15T08:50:56.761Z,45.40
2023-04-15T08:51:56.778Z,44.01
2023-04-15T08:52:56.739Z,43.40
2023-04-15T08:53:56.717Z,43.59
2023-04-15T08:54:56.712Z,44.07
2023-04-15T08:55:56.687Z,43.28
2023-04-15T08:56:56.730Z,43.66
2023-04-15T08:57:56.661Z,43.66
2023-04-15T08:58:56.661Z,43.65
2023-04-15T08:59:56.630Z,42.03
2023-04-15T09:00:56.641Z,41.93
2023-04-15T09:01:56.665Z,40.82
2023-04-15T09:02:56.648Z,40.91
2023-04-15T09:03:56.647Z,40.80
2023-04-15T09:04:56.586Z,40.00
2023-04-15T09:05:56.569Z,38.48
2023-04-15T09:06:56.568Z,38.12
2023-04-15T09:07:56.570Z,38.93
2023-04-15T09:08:56.516Z,39.43
2023-04-15T09:09:56.507Z,39.13
2023-04-15T09:10:56.498Z,39.92
2023-04-15T09:11:56.495Z,39.31
2023-04-15T09:12:56.477Z,40.62
2023-04-15T09:13:56.447Z,41.93
2023-04-15T09:14:56.436Z,41.63
2023-04-15T09:15:56.425Z,41.05
2023-04-15T09:16:56.493Z,41.27
2023-04-15T09:17:56.478Z,40.86
2023-04-15T09:18:56.400Z,40.94
2023-04-15T09:19:56.367Z,38.42
2023-04-15T09:20:56.372Z,38.93
2023-04-15T09:21:58.645Z,38.42
2023-04-15T09:22:56.335Z,38.52
2023-04-15T09:23:56.318Z,39.61
2023-04-15T09:24:56.313Z,38.82
2023-04-15T09:25:56.295Z,39.03
2023-04-15T09:26:56.297Z,38.91
2023-04-15T09:27:56.284Z,38.91
2023-04-15T09:28:56.263Z,39.41
2023-04-15T09:29:56.229Z,38.82
2023-04-15T09:30:56.217Z,38.91
2023-04-15T09:31:56.220Z,37.88
2023-04-15T09:32:56.221Z,38.08
2023-04-15T09:33:56.188Z,37.06
2023-04-15T09:34:56.192Z,36.87
2023-04-15T09:35:56.149Z,37.27
2023-04-15T09:36:56.172Z,34.39
2023-04-15T09:37:56.163Z,35.92
2023-04-15T09:38:56.133Z,35.23
2023-04-15T09:39:56.094Z,37.63
2023-04-15T09:40:56.097Z,36.04
2023-04-15T09:41:56.065Z,36.99
2023-04-15T09:42:56.076Z,39.70
2023-04-15T09:43:56.039Z,40.48
2023-04-15T09:44:56.034Z,39.41
2023-04-15T09:45:56.025Z,38.28
2023-04-15T09:46:56.031Z,36.67
2023-04-15T09:47:57.054Z,36.89
2023-04-15T09:48:55.996Z,35.88
2023-04-15T09:49:56.051Z,36.37
2023-04-15T09:50:55.959Z,35.99
2023-04-15T09:52:04.913Z,35.17
2023-04-15T09:52:55.948Z,34.70
2023-04-15T09:53:55.907Z,35.92
2023-04-15T09:54:55.905Z,35.13
2023-04-15T09:55:55.900Z,36.12
2023-04-15T09:56:55.872Z,35.01
2023-04-15T09:57:55.878Z,35.75
2023-04-15T09:58:55.923Z,37.04
2023-04-15T09:59:56.073Z,37.43
2023-04-15T10:00:57.145Z,36.71
2023-04-15T10:01:57.025Z,35.99
2023-04-15T10:02:56.957Z,36.17
2023-04-15T10:04:01.157Z,35.35
2023-04-15T10:04:56.791Z,35.63
2023-04-15T10:05:55.838Z,35.33
2023-04-15T10:06:55.816Z,35.41
2023-04-15T10:07:55.825Z,35.90
2023-04-15T10:08:55.727Z,36.60
2023-04-15T10:09:55.713Z,35.38
2023-04-15T10:10:55.700Z,36.18
2023-04-15T10:11:55.687Z,36.80
2023-04-15T10:12:55.674Z,36.89
2023-04-15T10:13:55.648Z,36.00
2023-04-15T10:14:55.636Z,36.64
2023-04-15T10:15:55.658Z,36.80
2023-04-15T10:16:55.654Z,37.61
2023-04-15T10:17:55.622Z,38.79
2023-04-15T10:18:55.585Z,38.07
2023-04-15T10:19:55.593Z,36.55
2023-04-15T10:20:55.565Z,36.13
2023-04-15T10:21:55.545Z,36.23
2023-04-15T10:22:55.592Z,35.13
2023-04-15T10:23:55.516Z,35.93
2023-04-15T10:24:55.510Z,35.23
2023-04-15T10:25:55.485Z,34.92
2023-04-15T10:26:55.488Z,33.51
2023-04-15T10:27:55.497Z,33.54
2023-04-15T10:28:55.471Z,34.04
2023-04-15T10:29:55.433Z,34.63
2023-04-15T10:30:55.447Z,34.83
2023-04-15T10:31:55.405Z,33.74
2023-04-15T10:32:55.551Z,33.15
2023-04-15T10:33:55.378Z,33.64
2023-04-15T10:34:55.413Z,34.14
2023-04-15T10:35:55.358Z,33.15
2023-04-15T10:36:55.350Z,32.85
2023-04-15T10:37:55.344Z,32.24
2023-04-15T10:38:55.324Z,33.25
2023-04-15T10:39:55.305Z,33.83
2023-04-15T10:40:55.289Z,33.20
2023-04-15T10:41:55.273Z,32.69
2023-04-15T10:42:55.280Z,31.96
2023-04-15T10:43:55.271Z,31.56
2023-04-15T10:44:55.245Z,32.62
2023-04-15T10:45:55.234Z,31.01
2023-04-15T10:46:55.318Z,31.74
2023-04-15T10:47:55.266Z,31.73
2023-04-15T10:48:55.197Z,31.81
2023-04-15T10:49:55.170Z,29.78
2023-04-15T10:50:55.161Z,29.90
2023-04-15T10:51:55.146Z,29.80
2023-04-15T10:52:55.134Z,30.07
2023-04-15T10:53:55.135Z,30.29
2023-04-15T10:54:55.114Z,29.91
2023-04-15T10:55:55.085Z,29.19
2023-04-15T10:56:55.082Z,29.57
2023-04-15T10:57:55.068Z,29.39
2023-04-15T10:58:55.106Z,30.81
2023-04-15T10:59:55.041Z,29.41
2023-04-15T11:00:55.026Z,27.73
2023-04-15T11:01:55.141Z,27.94
2023-04-15T11:02:55.126Z,28.55
2023-04-15T11:03:55.102Z,27.47
2023-04-15T11:04:55.208Z,28.75
2023-04-15T11:05:54.961Z,29.17
2023-04-15T11:06:54.957Z,29.79
2023-04-15T11:07:54.959Z,30.51
2023-04-15T11:08:54.952Z,30.91
2023-04-15T11:09:54.911Z,31.91
2023-04-15T11:10:54.904Z,32.50
2023-04-15T11:11:54.876Z,32.29
2023-04-15T11:12:54.887Z,32.38
2023-04-15T11:13:54.888Z,31.79
2023-04-15T11:14:54.860Z,32.11
2023-04-15T11:15:54.923Z,32.59
2023-04-15T11:16:54.848Z,33.00
2023-04-15T11:17:54.898Z,31.73
2023-04-15T11:18:54.829Z,32.24
2023-04-15T11:19:54.789Z,34.30
2023-04-15T11:20:54.773Z,35.03
2023-04-15T11:21:54.748Z,35.48
2023-04-15T11:23:14.130Z,36.29
2023-04-15T11:23:54.794Z,37.72
2023-04-15T11:24:54.715Z,36.88
2023-04-15T11:25:54.704Z,37.99
2023-04-15T11:26:54.698Z,36.46
2023-04-15T11:27:54.688Z,35.75
2023-04-15T11:28:54.661Z,35.61
2023-04-15T11:29:54.656Z,35.53
2023-04-15T11:30:54.638Z,36.24
2023-04-15T11:31:54.658Z,34.30
2023-04-15T11:32:54.711Z,34.28
2023-04-15T11:33:54.594Z,34.99
2023-04-15T11:34:54.574Z,35.58
2023-04-15T11:35:54.588Z,33.97
2023-04-15T11:36:54.556Z,34.44
2023-04-15T11:37:54.536Z,33.92
2023-04-15T11:38:54.587Z,34.72
2023-04-15T11:39:54.514Z,35.31
2023-04-15T11:40:54.529Z,35.23
2023-04-15T11:41:54.489Z,35.63
2023-04-15T11:42:54.502Z,36.22
2023-04-15T11:43:54.476Z,36.70
2023-04-15T11:44:54.449Z,34.98
2023-04-15T11:45:54.499Z,34.47
2023-04-15T11:46:54.448Z,34.06
2023-04-15T11:47:54.488Z,34.06
2023-04-15T11:48:54.411Z,34.16
2023-04-15T11:49:54.384Z,33.87
2023-04-15T11:50:54.388Z,32.97
2023-04-15T11:51:54.344Z,32.59
2023-04-15T11:52:54.340Z,32.15
2023-04-15T11:53:54.402Z,32.87
2023-04-15T11:54:54.311Z,34.19
2023-04-15T11:55:54.321Z,32.86
2023-04-15T11:56:54.299Z,32.86
2023-04-15T11:57:54.272Z,32.14
2023-04-15T11:58:54.284Z,32.53
2023-04-15T11:59:54.261Z,31.92
2023-04-15T12:00:54.284Z,32.79
2023-04-15T12:01:54.276Z,34.17
2023-04-15T12:02:54.354Z,31.03
2023-04-15T12:03:54.379Z,30.36
2023-04-15T12:04:54.277Z,31.98
2023-04-15T12:05:54.166Z,32.85
2023-04-15T12:06:54.162Z,30.91
2023-04-15T12:07:54.191Z,28.85
2023-04-15T12:08:54.168Z,29.79
2023-04-15T12:09:54.144Z,30.84
2023-04-15T12:10:54.108Z,30.86
2023-04-15T12:11:54.115Z,31.36
2023-04-15T12:12:54.076Z,31.35
2023-04-15T12:13:54.096Z,31.43
2023-04-15T12:14:54.046Z,30.54
2023-04-15T12:15:54.101Z,30.71
2023-04-15T12:16:54.078Z,30.43
2023-04-15T12:17:54.040Z,30.32
2023-04-15T12:18:54.042Z,30.26
2023-04-15T12:19:53.980Z,31.04
2023-04-15T12:20:53.966Z,30.93
2023-04-15T12:21:53.974Z,31.10
2023-04-15T12:22:53.956Z,29.58
2023-04-15T12:23:53.939Z,28.78
2023-04-15T12:24:53.931Z,28.81
2023-04-15T12:25:53.893Z,31.22
2023-04-15T12:26:53.877Z,29.92
2023-04-15T12:27:53.991Z,30.22
2023-04-15T12:28:53.871Z,31.43
2023-04-15T12:29:53.881Z,30.48
2023-04-15T12:30:53.890Z,31.56
2023-04-15T12:31:53.820Z,28.85
2023-04-15T12:32:53.862Z,30.36
2023-04-15T12:33:53.805Z,29.65
2023-04-15T12:34:53.813Z,29.72
2023-04-15T12:35:53.771Z,29.78
2023-04-15T12:36:53.762Z,28.77
2023-04-15T12:37:53.742Z,29.86
2023-04-15T12:38:53.765Z,29.75
2023-04-15T12:39:53.717Z,28.94
2023-04-15T12:40:53.716Z,28.62
2023-04-15T12:41:53.729Z,28.55
2023-04-15T12:42:53.692Z,29.35
2023-04-15T12:43:53.687Z,29.72
2023-04-15T12:44:53.690Z,28.72
2023-04-15T12:45:53.632Z,29.72
2023-04-15T12:46:53.724Z,29.22
2023-04-15T12:47:53.647Z,29.35
2023-04-15T12:48:53.617Z,29.68
2023-04-15T12:49:53.631Z,31.27
2023-04-15T12:50:53.656Z,32.51
2023-04-15T12:51:53.549Z,32.88
2023-04-15T12:52:53.559Z,34.02